createdAt,value
2023-05-26T04:07:47.301Z,16.87
2023-05-26T04:10:15.001Z,17.11
2023-05-26T04:12:44.484Z,17.18
2023-05-26T04:15:12.076Z,17.33
2023-05-26T04:17:39.700Z,17.29
2023-05-26T04:20:11.473Z,17.36
2023-05-26T04:22:39.777Z,17.41
2023-05-26T04:25:11.237Z,17.40
2023-05-26T04:27:57.562Z,17.43
2023-05-26T04:30:40.436Z,17.47
2023-05-26T04:33:26.710Z,17.73
2023-05-26T04:36:25.168Z,17.33
2023-05-26T04:38:52.866Z,17.49
2023-05-26T04:41:20.549Z,17.60
2023-05-26T04:43:48.358Z,17.67
2023-05-26T04:46:16.545Z,17.58
2023-05-26T04:48:44.068Z,17.51
2023-05-26T04:51:11.410Z,17.37
2023-05-26T04:53:38.821Z,17.06
2023-05-26T04:56:08.588Z,17.17
2023-05-26T04:58:41.729Z,17.40
2023-05-26T05:01:11.243Z,17.25
2023-05-26T05:03:52.164Z,17.05
2023-05-26T05:06:28.555Z,17.15
2023-05-26T05:08:57.115Z,17.11
2023-05-26T05:11:26.897Z,17.17
2023-05-26T05:13:54.266Z,17.19
2023-05-26T05:16:24.816Z,17.15
2023-05-26T05:18:54.237Z,17.20
2023-05-26T05:21:23.715Z,17.24
2023-05-26T05:23:54.516Z,17.08
2023-05-26T05:26:23.683Z,17.20
2023-05-26T05:28:52.143Z,17.20
2023-05-26T05:31:45.829Z,17.27
2023-05-26T05:34:13.346Z,17.69
2023-05-26T05:36:41.481Z,17.77
2023-05-26T05:39:09.877Z,17.73
2023-05-26T05:41:37.689Z,17.58
2023-05-26T05:44:05.663Z,17.74
2023-05-26T05:46:33.598Z,17.83
2023-05-26T05:49:36.576Z,17.90
2023-05-26T05:52:05.813Z,17.78
2023-05-26T05:54:33.221Z,17.89
2023-05-26T05:57:02.093Z,18.01
2023-05-26T05:59:29.590Z,17.99
2023-05-26T06:01:57.000Z,17.98
2023-05-26T06:04:26.696Z,18.10
2023-05-26T06:06:54.656Z,18.36
2023-05-26T06:09:22.383Z,18.24
2023-05-26T06:11:50.981Z,18.28
2023-05-26T06:14:20.924Z,18.41
2023-05-26T06:16:49.289Z,18.40
2023-05-26T06:19:16.905Z,18.49
2023-05-26T06:21:44.681Z,18.49
2023-05-26T06:24:12.958Z,18.62
2023-05-26T06:26:40.438Z,18.62
2023-05-26T06:29:13.080Z,18.81
2023-05-26T06:31:42.948Z,19.10
2023-05-26T06:34:14.968Z,19.22
2023-05-26T06:36:42.914Z,19.04
2023-05-26T06:39:10.406Z,19.37
2023-05-26T06:41:38.273Z,19.08
2023-05-26T06:44:06.173Z,19.16
2023-05-26T06:46:33.966Z,19.29
2023-05-26T06:49:01.311Z,19.43
2023-05-26T06:51:54.465Z,19.38
2023-05-26T06:54:21.973Z,19.28
2023-05-26T06:56:51.111Z,19.77
2023-05-26T06:59:21.012Z,19.81
2023-05-26T07:01:48.876Z,19.70
2023-05-26T07:04:16.259Z,19.72
2023-05-26T07:06:47.863Z,20.01
2023-05-26T07:09:20.905Z,19.70
2023-05-26T07:12:00.128Z,19.84
2023-05-26T07:15:02.893Z,20.23
2023-05-26T07:17:31.758Z,20.04
2023-05-26T07:20:00.255Z,19.94
2023-05-26T07:22:28.588Z,20.34
2023-05-26T07:25:02.067Z,20.37
2023-05-26T07:27:35.450Z,20.03
2023-05-26T07:30:04.021Z,20.46
2023-05-26T07:32:32.835Z,20.35
2023-05-26T07:35:00.349Z,20.28
2023-05-26T07:37:29.671Z,20.17
2023-05-26T07:39:57.271Z,20.55
2023-05-26T07:42:24.853Z,20.74
2023-05-26T07:44:52.214Z,20.62
2023-05-26T07:47:20.493Z,20.48
2023-05-26T07:49:48.152Z,20.88
2023-05-26T07:52:16.197Z,20.89
2023-05-26T07:54:43.546Z,21.04
2023-05-26T07:57:22.044Z,21.15
2023-05-26T07:59:56.688Z,21.47
2023-05-26T08:02:24.776Z,21.47
2023-05-26T08:04:52.664Z,21.35
2023-05-26T08:07:20.522Z,21.13
2023-05-26T08:09:48.370Z,21.17
2023-05-26T08:12:16.197Z,21.20
2023-05-26T08:14:44.601Z,21.43
2023-05-26T08:17:12.180Z,21.17
2023-05-26T08:19:39.555Z,21.37
2023-05-26T08:22:07.110Z,21.75
2023-05-26T08:24:34.890Z,21.30
2023-05-26T08:27:03.002Z,21.78
2023-05-26T08:29:30.402Z,21.98
2023-05-26T08:32:00.883Z,22.00
2023-05-26T08:34:28.883Z,22.09
2023-05-26T08:36:56.321Z,21.92
2023-05-26T08:39:24.087Z,22.20
2023-05-26T08:41:57.715Z,22.21
2023-05-26T08:44:25.605Z,22.32
2023-05-26T08:46:56.748Z,22.52
2023-05-26T08:49:25.348Z,22.54
2023-05-26T08:52:03.427Z,22.12
2023-05-26T08:54:31.275Z,22.50
2023-05-26T08:56:59.866Z,22.75
2023-05-26T08:59:29.596Z,22.77
2023-05-26T09:01:57.840Z,22.83
2023-05-26T09:04:30.981Z,22.65
2023-05-26T09:07:21.661Z,22.81
2023-05-26T09:09:47.382Z,23.00
2023-05-26T09:12:15.393Z,23.03
2023-05-26T09:14:44.651Z,23.07
2023-05-26T09:17:15.293Z,23.28
2023-05-26T09:19:42.894Z,23.28
2023-05-26T09:22:12.184Z,23.60
2023-05-26T09:24:50.906Z,23.14
2023-05-26T09:27:23.534Z,23.09
2023-05-26T09:29:55.695Z,23.17
2023-05-26T09:32:27.906Z,23.24
2023-05-26T09:35:01.683Z,23.66
2023-05-26T09:37:33.809Z,23.31
2023-05-26T09:42:57.458Z,23.39
2023-05-26T09:45:25.238Z,23.77
2023-05-26T09:47:59.158Z,23.77
2023-05-26T09:50:26.834Z,23.82
2023-05-26T09:52:54.425Z,23.78
2023-05-26T09:55:22.069Z,23.86
2023-05-26T09:57:51.236Z,23.84
2023-05-26T10:00:19.355Z,24.42
2023-05-26T10:02:48.538Z,24.25
2023-05-26T10:05:17.649Z,24.42
2023-05-26T10:07:46.489Z,23.89
2023-05-26T10:10:15.383Z,24.42
2023-05-26T10:12:44.026Z,23.92
2023-05-26T10:15:12.089Z,23.91
2023-05-26T10:17:40.484Z,24.26
2023-05-26T10:20:09.559Z,23.87
2023-05-26T10:22:57.894Z,24.40
2023-05-26T10:25:36.938Z,24.28
2023-05-26T10:28:42.025Z,24.42
2023-05-26T10:31:09.395Z,24.82
2023-05-26T10:33:45.458Z,24.62
2023-05-26T10:36:18.583Z,24.35
2023-05-26T10:38:51.549Z,24.58
2023-05-26T10:41:32.859Z,24.78
2023-05-26T10:44:01.890Z,25.06
2023-05-26T10:46:47.429Z,24.75
2023-05-26T10:49:22.999Z,24.90
2023-05-26T10:51:55.968Z,25.34
2023-05-26T10:54:26.301Z,25.34
2023-05-26T10:56:55.053Z,25.57
2023-05-26T10:59:30.787Z,26.31
2023-05-26T11:02:04.562Z,25.64
2023-05-26T11:04:43.739Z,25.79
2023-05-26T11:07:16.490Z,25.95
2023-05-26T11:10:06.479Z,26.36
2023-05-26T11:12:34.927Z,25.98
2023-05-26T11:15:30.783Z,25.77
2023-05-26T11:18:02.829Z,25.93
2023-05-26T11:20:30.764Z,26.18
2023-05-26T11:22:58.548Z,26.50
2023-05-26T11:25:29.414Z,26.57
2023-05-26T11:27:57.197Z,26.41
2023-05-26T11:30:34.798Z,26.42
2023-05-26T11:33:12.043Z,26.40
2023-05-26T11:35:40.490Z,26.18
2023-05-26T11:38:08.072Z,26.43
2023-05-26T11:40:35.718Z,26.62
2023-05-26T11:43:03.352Z,27.28
2023-05-26T11:45:31.156Z,26.66
2023-05-26T11:47:58.910Z,26.69
2023-05-26T11:50:26.363Z,27.25
2023-05-26T11:52:53.754Z,27.78
2023-05-26T11:55:21.299Z,27.73
2023-05-26T11:57:52.252Z,27.92
2023-05-26T12:00:20.438Z,27.80
2023-05-26T12:02:48.744Z,27.55
2023-05-26T12:05:30.356Z,28.29
2023-05-26T12:08:07.809Z,28.75
2023-05-26T12:10:36.983Z,27.71
2023-05-26T12:13:04.999Z,27.79
2023-05-26T12:15:32.895Z,28.34
2023-05-26T12:18:03.786Z,27.94
2023-05-26T12:20:44.100Z,28.57
2023-05-26T12:23:25.900Z,29.24
2023-05-26T12:25:53.916Z,28.53
2023-05-26T12:28:21.269Z,28.62
2023-05-26T12:30:49.929Z,29.09
2023-05-26T12:33:18.557Z,29.85
2023-05-26T12:35:45.978Z,28.79
2023-05-26T12:38:15.049Z,28.18
2023-05-26T12:40:43.067Z,28.85
2023-05-26T12:43:10.795Z,29.86
2023-05-26T12:45:39.263Z,29.79
2023-05-26T12:48:07.898Z,29.10
2023-05-26T12:50:35.385Z,29.40
2023-05-26T12:53:03.390Z,29.03
2023-05-26T12:55:31.533Z,29.48
2023-05-26T12:57:59.288Z,29.68
2023-05-26T13:00:26.567Z,30.13
2023-05-26T13:02:54.142Z,29.13
2023-05-26T13:05:22.673Z,29.23
2023-05-26T13:07:50.859Z,29.62
2023-05-26T13:10:19.201Z,29.18
2023-05-26T13:12:47.747Z,29.27
2023-05-26T13:15:17.379Z,29.52
2023-05-26T13:17:45.306Z,29.81
2023-05-26T13:20:13.274Z,30.83
2023-05-26T13:22:46.047Z,30.35
2023-05-26T13:25:13.875Z,29.54
2023-05-26T13:27:41.757Z,29.40
2023-05-26T13:30:09.372Z,30.83
2023-05-26T13:32:37.742Z,31.72
2023-05-26T13:35:05.596Z,31.39
2023-05-26T13:37:33.498Z,32.10
2023-05-26T13:40:00.995Z,32.28
2023-05-26T13:42:35.291Z,31.96
2023-05-26T13:45:04.971Z,32.03
2023-05-26T13:47:32.627Z,31.61
2023-05-26T13:50:09.334Z,31.40
2023-05-26T13:52:47.721Z,32.35
2023-05-26T13:55:15.689Z,32.51
2023-05-26T13:57:43.465Z,31.97
2023-05-26T14:00:11.907Z,32.15
2023-05-26T14:02:42.492Z,31.81
2023-05-26T14:05:12.069Z,31.44
2023-05-26T14:07:39.940Z,31.48
2023-05-26T14:10:08.247Z,31.62
2023-05-26T14:12:35.862Z,32.57
2023-05-26T14:15:05.643Z,32.34
2023-05-26T14:17:34.074Z,32.08
2023-05-26T14:20:07.733Z,32.97
2023-05-26T14:22:38.548Z,32.84
2023-05-26T14:25:07.183Z,32.83
2023-05-26T14:27:34.993Z,33.29
2023-05-26T14:30:02.467Z,32.54
2023-05-26T14:32:29.897Z,32.71
2023-05-26T14:34:57.751Z,32.16
2023-05-26T14:37:26.785Z,32.37
2023-05-26T14:39:55.540Z,33.01
2023-05-26T14:42:22.943Z,33.49
2023-05-26T14:44:51.863Z,32.98
2023-05-26T14:47:19.940Z,33.98
2023-05-26T14:49:47.748Z,31.81
2023-05-26T14:52:16.398Z,32.55
2023-05-26T14:54:44.452Z,36.63
2023-05-26T14:57:12.323Z,41.25
2023-05-26T14:59:39.885Z,44.75
2023-05-26T15:02:08.254Z,45.64
2023-05-26T15:04:35.939Z,46.88
2023-05-26T15:07:04.605Z,47.65
2023-05-26T15:09:32.760Z,48.76
2023-05-26T15:12:00.654Z,47.40
2023-05-26T15:14:27.951Z,47.23
2023-05-26T15:16:55.335Z,47.04
2023-05-26T15:19:23.121Z,47.13
2023-05-26T15:21:50.644Z,48.54
2023-05-26T15:24:18.860Z,48.84
2023-05-26T15:26:46.746Z,48.84
2023-05-26T15:29:15.597Z,50.23
2023-05-26T15:31:43.485Z,48.69
2023-05-26T15:34:10.832Z,46.40
2023-05-26T15:36:38.625Z,47.16
2023-05-26T15:39:05.910Z,46.58
2023-05-26T15:41:33.826Z,47.91
2023-05-26T15:44:03.697Z,49.44
2023-05-26T15:46:31.587Z,48.83
2023-05-26T15:48:59.410Z,48.17
2023-05-26T15:51:26.829Z,48.14
2023-05-26T15:53:54.196Z,46.55
2023-05-26T15:56:21.609Z,46.31
2023-05-26T15:58:49.367Z,46.02
2023-05-26T16:01:18.458Z,46.70
2023-05-26T16:03:45.840Z,49.62
2023-05-26T16:06:13.898Z,47.13
2023-05-26T16:08:43.081Z,46.31
2023-05-26T16:11:10.571Z,47.18
2023-05-26T16:13:38.725Z,46.08
2023-05-26T16:16:07.251Z,47.06
2023-05-26T16:18:34.712Z,47.55
2023-05-26T16:21:03.051Z,48.09
2023-05-26T16:23:30.714Z,47.09
2023-05-26T16:26:00.361Z,46.02
2023-05-26T16:28:27.904Z,47.59
2023-05-26T16:30:55.675Z,47.86
2023-05-26T16:33:23.811Z,46.23
2023-05-26T16:35:53.468Z,44.12
2023-05-26T16:38:22.418Z,43.10
2023-05-26T16:40:50.700Z,43.21
2023-05-26T16:43:36.018Z,45.35
2023-05-26T16:46:06.373Z,45.91
2023-05-26T16:48:34.016Z,45.40
2023-05-26T16:51:01.345Z,43.49
2023-05-26T16:53:28.825Z,44.12
2023-05-26T16:55:56.349Z,42.91
2023-05-26T16:58:25.165Z,41.52
2023-05-26T17:00:52.584Z,41.65
2023-05-26T17:03:21.313Z,44.63
2023-05-26T17:05:48.800Z,45.77
2023-05-26T17:08:16.167Z,44.79
2023-05-26T17:10:45.423Z,45.45
2023-05-26T17:13:12.729Z,42.28
2023-05-26T17:15:40.171Z,42.16
2023-05-26T17:18:08.294Z,41.40
2023-05-26T17:20:35.987Z,40.57
2023-05-26T17:23:04.449Z,41.51
2023-05-26T17:25:31.803Z,39.58
2023-05-26T17:27:59.158Z,37.95
2023-05-26T17:30:26.859Z,38.79
2023-05-26T17:32:55.296Z,37.19
2023-05-26T17:35:26.116Z,35.20
2023-05-26T17:37:54.102Z,34.54
2023-05-26T17:40:21.674Z,33.33
2023-05-26T17:42:49.923Z,32.97
2023-05-26T17:45:17.694Z,32.49
2023-05-26T17:47:46.035Z,31.82
2023-05-26T17:50:13.773Z,32.00
2023-05-26T17:52:41.564Z,32.22
2023-05-26T17:55:09.135Z,31.92
2023-05-26T17:57:37.358Z,31.66
2023-05-26T18:00:05.533Z,31.33
2023-05-26T18:02:40.443Z,30.79
2023-05-26T18:05:08.100Z,30.39
2023-05-26T18:07:35.408Z,30.29
2023-05-26T18:10:03.415Z,30.36
2023-05-26T18:12:31.261Z,30.64
2023-05-26T18:14:58.567Z,29.92
2023-05-26T18:17:25.917Z,29.87
2023-05-26T18:19:53.873Z,29.82
2023-05-26T18:22:21.651Z,29.87
2023-05-26T18:24:49.121Z,29.82
2023-05-26T18:27:17.430Z,29.57
2023-05-26T18:29:45.253Z,29.77
2023-05-26T18:32:13.479Z,29.54
2023-05-26T18:34:41.345Z,28.99
2023-05-26T18:37:09.165Z,28.84
2023-05-26T18:39:37.482Z,28.79
2023-05-26T18:42:04.846Z,28.74
2023-05-26T18:44:32.655Z,28.59
2023-05-26T18:47:00.608Z,28.24
2023-05-26T18:49:30.888Z,27.89
2023-05-26T18:51:58.982Z,27.62
2023-05-26T18:54:27.389Z,27.39
2023-05-26T18:56:55.288Z,27.23
2023-05-26T18:59:22.575Z,27.02
2023-05-26T19:01:50.395Z,26.89
2023-05-26T19:04:18.224Z,26.83
2023-05-26T19:06:45.580Z,26.86
2023-05-26T19:09:13.309Z,26.89
2023-05-26T19:11:41.885Z,26.85
2023-05-26T19:14:09.358Z,26.64
2023-05-26T19:19:09.769Z,26.48
2023-05-26T19:21:37.812Z,26.47
2023-05-26T19:24:07.273Z,26.38
2023-05-26T19:26:35.370Z,26.32
2023-05-26T19:29:05.106Z,26.22
2023-05-26T19:31:33.545Z,26.01
2023-05-26T19:34:02.297Z,25.93
2023-05-26T19:36:30.778Z,25.88
2023-05-26T19:38:59.314Z,25.76
2023-05-26T19:41:29.138Z,25.58
2023-05-26T19:43:57.050Z,25.19
2023-05-26T19:46:24.417Z,24.94
2023-05-26T19:48:52.020Z,25.09
2023-05-26T19:51:19.716Z,25.28
2023-05-26T19:53:47.455Z,25.30
2023-05-26T19:56:14.872Z,25.11
2023-05-26T19:58:42.349Z,24.92
2023-05-26T20:01:09.758Z,24.61
2023-05-26T20:03:37.170Z,24.37
2023-05-26T20:06:05.469Z,24.54
2023-05-26T20:08:33.958Z,24.75
2023-05-26T20:11:01.902Z,24.84
2023-05-26T20:13:30.621Z,25.06
2023-05-26T20:15:58.345Z,25.40
2023-05-26T20:18:25.789Z,25.50
2023-05-26T20:20:53.750Z,25.34
2023-05-26T20:23:21.591Z,25.51
2023-05-26T20:25:49.857Z,25.16
2023-05-26T20:28:17.582Z,25.03
2023-05-26T20:30:45.582Z,24.90
2023-05-26T20:33:13.585Z,24.77
2023-05-26T20:35:42.142Z,24.57
2023-05-26T20:38:09.918Z,24.66
2023-05-26T20:40:37.427Z,24.51
2023-05-26T20:43:05.481Z,24.79
2023-05-26T20:45:33.673Z,24.72
2023-05-26T20:48:01.177Z,24.63
2023-05-26T20:50:28.598Z,24.54
2023-05-26T20:52:56.466Z,24.46
2023-05-26T20:55:23.943Z,24.35
2023-05-26T20:57:51.310Z,24.32
2023-05-26T21:00:19.454Z,24.42
2023-05-26T21:02:46.884Z,24.31
2023-05-26T21:05:14.760Z,24.20
2023-05-26T21:07:42.876Z,24.11
2023-05-26T21:10:10.953Z,23.93
2023-05-26T21:12:39.295Z,23.78
2023-05-26T21:15:07.567Z,23.88
2023-05-26T21:17:35.722Z,23.89
2023-05-26T21:20:03.962Z,23.67
2023-05-26T21:22:32.227Z,23.63
2023-05-26T21:24:59.719Z,23.64
2023-05-26T21:27:27.041Z,23.67
2023-05-26T21:29:54.322Z,23.63
2023-05-26T21:32:22.706Z,23.69
2023-05-26T21:34:50.809Z,23.49
2023-05-26T21:37:18.335Z,23.43
2023-05-26T21:39:46.248Z,23.21
2023-05-26T21:42:13.800Z,23.32
2023-05-26T21:44:42.079Z,23.26
2023-05-26T21:47:09.460Z,23.40
2023-05-26T21:49:37.038Z,23.34
2023-05-26T21:52:05.300Z,23.28
2023-05-26T21:54:32.629Z,23.16
2023-05-26T21:57:00.027Z,23.09
2023-05-26T21:59:27.988Z,22.92
2023-05-26T22:01:55.978Z,22.98
2023-05-26T22:04:24.029Z,22.92
2023-05-26T22:06:51.862Z,22.95
2023-05-26T22:09:19.712Z,23.09
2023-05-26T22:11:47.764Z,23.36
2023-05-26T22:14:25.229Z,23.24
2023-05-26T22:16:53.642Z,22.95
2023-05-26T22:19:22.158Z,22.70
2023-05-26T22:21:49.782Z,22.85
2023-05-26T22:24:17.642Z,22.69
2023-05-26T22:26:45.404Z,22.46
2023-05-26T22:29:12.871Z,22.33
2023-05-26T22:31:41.596Z,22.19
2023-05-26T22:34:09.026Z,22.32
2023-05-26T22:36:36.862Z,22.28
2023-05-26T22:39:06.458Z,22.08
2023-05-26T22:41:34.898Z,21.94
2023-05-26T22:44:02.326Z,21.70
2023-05-26T22:46:30.992Z,21.47
2023-05-26T22:48:59.475Z,21.42
2023-05-26T22:51:28.629Z,21.56
2023-05-26T22:53:57.435Z,21.63
2023-05-26T22:56:26.311Z,21.66
2023-05-26T22:58:53.686Z,21.42
2023-05-26T23:01:21.929Z,21.45
2023-05-26T23:03:49.429Z,21.53
2023-05-26T23:06:19.540Z,21.57
2023-05-26T23:08:49.150Z,21.61
2023-05-26T23:11:18.530Z,21.45
2023-05-26T23:13:48.482Z,21.61
2023-05-26T23:16:17.071Z,21.49
2023-05-26T23:18:44.550Z,21.60
2023-05-26T23:21:12.638Z,21.71
2023-05-26T23:23:40.086Z,21.70
2023-05-26T23:26:08.474Z,21.42
2023-05-26T23:28:36.090Z,21.56
2023-05-26T23:31:03.531Z,21.84
2023-05-26T23:33:32.018Z,22.13
2023-05-26T23:36:00.480Z,22.20
2023-05-26T23:38:29.963Z,21.88
2023-05-26T23:41:00.828Z,21.70
2023-05-26T23:43:29.371Z,21.78
2023-05-26T23:46:01.575Z,21.81
2023-05-26T23:48:30.692Z,21.86
2023-05-26T23:50:58.448Z,21.88
2023-05-26T23:53:26.139Z,21.96
2023-05-26T23:55:54.157Z,21.87
2023-05-26T23:58:21.797Z,21.59
